createdAt,value
2023-11-30T00:01:11.227Z,2.30
2023-11-30T00:03:57.016Z,2.30
2023-11-30T00:06:43.595Z,2.58
2023-11-30T00:09:29.171Z,2.30
2023-11-30T00:12:15.031Z,2.03
2023-11-30T00:15:00.577Z,2.60
2023-11-30T00:17:46.204Z,3.40
2023-11-30T00:20:32.187Z,4.00
2023-11-30T00:23:17.497Z,3.38
2023-11-30T00:26:03.199Z,3.15
2023-11-30T00:28:51.313Z,3.28
2023-11-30T00:31:36.916Z,3.22
2023-11-30T00:34:22.891Z,3.20
2023-11-30T00:37:08.632Z,3.22
2023-11-30T00:39:54.350Z,2.97
2023-11-30T00:42:40.147Z,2.63
2023-11-30T00:45:26.004Z,2.92
2023-11-30T00:48:14.417Z,1.95
2023-11-30T00:51:00.112Z,2.05
2023-11-30T00:53:45.748Z,2.08
2023-11-30T00:56:31.434Z,2.10
2023-11-30T00:59:16.614Z,2.35
2023-11-30T01:02:02.334Z,2.20
2023-11-30T01:04:47.977Z,2.03
2023-11-30T01:07:33.764Z,2.28
2023-11-30T01:10:19.079Z,2.17
2023-11-30T01:13:04.866Z,1.88
2023-11-30T01:15:50.511Z,2.30
2023-11-30T01:18:36.859Z,2.65
2023-11-30T01:21:22.437Z,3.15
2023-11-30T01:24:08.073Z,3.90
2023-11-30T01:26:53.719Z,3.63
2023-11-30T01:29:38.835Z,3.53
2023-11-30T01:32:24.230Z,3.75
2023-11-30T01:35:10.038Z,3.47
2023-11-30T01:37:55.565Z,2.90
2023-11-30T01:40:42.485Z,2.95
2023-11-30T01:43:28.911Z,2.70
2023-11-30T01:46:14.976Z,3.50
2023-11-30T01:49:00.986Z,2.97
2023-11-30T01:51:46.418Z,2.40
2023-11-30T01:54:32.037Z,2.65
2023-11-30T01:57:17.627Z,2.50
2023-11-30T02:00:05.538Z,2.10
2023-11-30T02:02:59.036Z,2.53
2023-11-30T02:05:45.425Z,2.13
2023-11-30T02:08:30.837Z,2.50
2023-11-30T02:11:16.540Z,2.70
2023-11-30T02:14:04.398Z,2.58
2023-11-30T02:16:50.131Z,2.65
2023-11-30T02:19:35.606Z,2.50
2023-11-30T02:22:22.030Z,2.88
2023-11-30T02:25:08.751Z,3.60
2023-11-30T02:28:00.427Z,4.90
2023-11-30T02:30:47.795Z,4.53
2023-11-30T02:33:33.551Z,3.55
2023-11-30T02:36:20.365Z,4.22
2023-11-30T02:39:06.391Z,3.28
2023-11-30T02:41:52.642Z,4.07
2023-11-30T02:44:38.487Z,3.80
2023-11-30T02:47:23.841Z,3.35
2023-11-30T02:50:10.131Z,3.38
2023-11-30T02:52:59.844Z,2.75
2023-11-30T02:55:45.164Z,3.00
2023-11-30T02:58:30.797Z,4.50
2023-11-30T03:01:16.653Z,5.03
2023-11-30T03:04:02.121Z,6.30
2023-11-30T03:06:50.718Z,5.57
2023-11-30T03:09:41.939Z,5.13
2023-11-30T03:12:27.720Z,4.47
2023-11-30T03:15:15.031Z,4.35
2023-11-30T03:18:00.810Z,5.70
2023-11-30T03:20:47.194Z,4.85
2023-11-30T03:23:34.483Z,4.28
2023-11-30T03:26:20.170Z,4.43
2023-11-30T03:29:05.595Z,4.22
2023-11-30T03:31:51.369Z,4.50
2023-11-30T03:34:38.917Z,4.22
2023-11-30T03:37:24.686Z,4.00
2023-11-30T03:40:11.444Z,3.30
2023-11-30T03:42:57.055Z,5.38
2023-11-30T03:45:43.039Z,7.40
2023-11-30T03:48:28.871Z,8.23
2023-11-30T03:51:14.172Z,9.63
2023-11-30T03:54:00.065Z,10.07
2023-11-30T03:56:45.372Z,9.70
2023-11-30T03:59:32.791Z,8.75
2023-11-30T04:02:19.044Z,9.23
2023-11-30T04:05:06.682Z,9.25
2023-11-30T04:07:52.074Z,8.43
2023-11-30T04:10:37.656Z,8.05
2023-11-30T04:13:26.891Z,6.72
2023-11-30T04:16:18.182Z,6.55
2023-11-30T04:19:04.070Z,6.55
2023-11-30T04:21:49.450Z,5.82
2023-11-30T04:24:35.536Z,5.68
2023-11-30T04:27:21.951Z,5.40
2023-11-30T04:30:08.548Z,5.70
2023-11-30T04:32:54.941Z,6.55
2023-11-30T04:35:44.103Z,6.32
2023-11-30T04:38:29.801Z,7.28
2023-11-30T04:41:20.292Z,6.65
2023-11-30T04:44:06.479Z,7.10
2023-11-30T04:46:53.372Z,10.52
2023-11-30T04:49:41.636Z,10.07
2023-11-30T04:52:27.287Z,9.65
2023-11-30T04:55:13.331Z,8.95
2023-11-30T04:57:58.773Z,8.85
2023-11-30T05:00:44.248Z,11.02
2023-11-30T05:03:29.987Z,9.75
2023-11-30T05:06:15.733Z,9.23
2023-11-30T05:09:01.684Z,8.48
2023-11-30T05:11:47.403Z,7.03
2023-11-30T05:14:33.045Z,7.40
2023-11-30T05:17:19.688Z,6.63
2023-11-30T05:20:05.756Z,5.97
2023-11-30T05:22:51.552Z,5.50
2023-11-30T05:25:37.042Z,6.50
2023-11-30T05:28:22.675Z,7.18
2023-11-30T05:31:09.005Z,7.07
2023-11-30T05:33:54.551Z,6.30
2023-11-30T05:36:40.033Z,5.50
2023-11-30T05:39:25.932Z,5.18
2023-11-30T05:42:11.674Z,5.25
2023-11-30T05:44:58.052Z,5.13
2023-11-30T05:47:43.583Z,5.18
2023-11-30T05:50:29.580Z,5.45
2023-11-30T05:53:18.103Z,5.18
2023-11-30T05:56:03.761Z,4.88
2023-11-30T05:58:49.783Z,4.28
2023-11-30T06:01:35.478Z,4.70
2023-11-30T06:04:21.443Z,4.93
2023-11-30T06:07:08.165Z,5.30
2023-11-30T06:09:53.771Z,6.97
2023-11-30T06:12:42.792Z,7.15
2023-11-30T06:15:31.205Z,6.55
2023-11-30T06:18:17.194Z,6.18
2023-11-30T06:21:02.851Z,6.00
2023-11-30T06:23:49.020Z,5.72
2023-11-30T06:26:34.470Z,5.10
2023-11-30T06:29:21.185Z,4.93
2023-11-30T06:32:06.677Z,4.72
2023-11-30T06:34:52.379Z,5.00
2023-11-30T06:37:37.757Z,5.60
2023-11-30T06:40:23.172Z,6.93
2023-11-30T06:43:09.580Z,7.25
2023-11-30T06:45:55.254Z,6.63
2023-11-30T06:48:44.732Z,7.88
2023-11-30T06:51:30.136Z,8.20
2023-11-30T06:54:23.247Z,9.05
2023-11-30T06:57:11.896Z,10.60
2023-11-30T06:59:57.531Z,9.50
2023-11-30T07:02:44.160Z,9.10
2023-11-30T07:05:32.018Z,8.18
2023-11-30T07:08:17.553Z,10.00
2023-11-30T07:11:04.904Z,11.35
2023-11-30T07:13:55.104Z,11.48
2023-11-30T07:16:40.780Z,14.13
2023-11-30T07:19:26.268Z,17.05
2023-11-30T07:22:11.986Z,18.95
2023-11-30T07:24:57.679Z,19.65
2023-11-30T07:27:43.902Z,17.23
2023-11-30T07:30:30.249Z,17.40
2023-11-30T07:33:15.875Z,16.05
2023-11-30T07:36:01.958Z,14.88
2023-11-30T07:38:48.108Z,15.93
2023-11-30T07:41:33.371Z,13.55
2023-11-30T07:44:21.720Z,12.20
2023-11-30T07:47:06.909Z,11.95
2023-11-30T07:49:52.424Z,11.13
2023-11-30T07:52:39.857Z,10.68
2023-11-30T07:55:28.839Z,11.50
2023-11-30T07:58:14.258Z,11.85
2023-11-30T08:01:01.054Z,11.98
2023-11-30T08:03:48.024Z,12.15
2023-11-30T08:06:35.252Z,12.02
2023-11-30T08:09:25.822Z,11.05
2023-11-30T08:12:11.770Z,10.45
2023-11-30T08:14:59.937Z,9.90
2023-11-30T08:17:47.327Z,8.57
2023-11-30T08:20:32.821Z,9.50
2023-11-30T08:23:18.259Z,10.10
2023-11-30T08:26:11.992Z,9.93
2023-11-30T08:29:00.189Z,10.40
2023-11-30T08:31:45.721Z,11.82
2023-11-30T08:34:31.067Z,10.77
2023-11-30T08:37:19.592Z,9.35
2023-11-30T08:40:11.842Z,9.35
2023-11-30T08:42:57.229Z,9.50
2023-11-30T08:45:45.115Z,7.78
2023-11-30T08:48:33.004Z,7.80
2023-11-30T08:51:21.489Z,7.03
2023-11-30T08:54:08.118Z,6.32
2023-11-30T08:57:02.900Z,5.68
2023-11-30T08:59:50.544Z,5.45
2023-11-30T09:02:38.631Z,7.63
2023-11-30T09:05:24.974Z,9.90
2023-11-30T09:08:11.846Z,8.75
2023-11-30T09:10:58.110Z,10.45
2023-11-30T09:13:45.789Z,13.23
2023-11-30T09:16:33.201Z,14.35
2023-11-30T09:19:19.482Z,15.10
2023-11-30T09:22:05.246Z,17.85
2023-11-30T09:24:51.319Z,17.50
2023-11-30T09:27:39.329Z,18.75
2023-11-30T09:30:25.139Z,17.10
2023-11-30T09:33:11.268Z,20.33
2023-11-30T09:36:03.287Z,19.73
2023-11-30T09:38:48.937Z,20.90
2023-11-30T09:41:36.135Z,20.05
2023-11-30T09:44:21.949Z,18.48
2023-11-30T09:47:07.686Z,18.60
2023-11-30T09:49:52.999Z,19.50
2023-11-30T09:52:38.873Z,19.88
2023-11-30T09:55:26.639Z,20.52
2023-11-30T09:58:12.374Z,18.95
2023-11-30T10:01:02.345Z,18.48
2023-11-30T10:03:48.089Z,19.25
2023-11-30T10:06:33.801Z,19.77
2023-11-30T10:09:19.352Z,19.30
2023-11-30T10:12:05.790Z,20.52
2023-11-30T10:15:00.731Z,19.55
2023-11-30T10:17:47.726Z,18.92
2023-11-30T10:20:36.809Z,18.33
2023-11-30T10:23:23.283Z,20.80
2023-11-30T10:26:11.556Z,21.05
2023-11-30T10:28:58.925Z,23.50
2023-11-30T10:31:44.951Z,21.77
2023-11-30T10:34:35.954Z,20.80
2023-11-30T10:37:25.676Z,22.90
2023-11-30T10:40:13.707Z,23.15
2023-11-30T10:43:04.755Z,22.00
2023-11-30T10:45:57.380Z,23.77
2023-11-30T10:48:43.366Z,24.85
2023-11-30T10:51:29.204Z,23.48
2023-11-30T10:54:27.494Z,23.48
2023-11-30T10:57:14.321Z,21.85
2023-11-30T11:00:00.406Z,20.20
2023-11-30T11:02:51.398Z,19.40
2023-11-30T11:05:45.338Z,19.75
2023-11-30T11:08:32.347Z,17.58
2023-11-30T11:11:23.167Z,18.38
2023-11-30T11:14:08.869Z,16.15
2023-11-30T11:17:06.578Z,18.25
2023-11-30T11:19:54.485Z,15.88
2023-11-30T11:22:41.434Z,16.42
2023-11-30T11:25:27.448Z,18.27
2023-11-30T11:28:15.068Z,16.67
2023-11-30T11:31:00.580Z,16.63
2023-11-30T11:33:48.700Z,17.30
2023-11-30T11:36:39.074Z,18.20
2023-11-30T11:39:24.941Z,19.67
2023-11-30T11:42:10.520Z,19.35
2023-11-30T11:45:02.659Z,19.45
2023-11-30T11:47:48.343Z,22.05
2023-11-30T11:50:39.808Z,22.90
2023-11-30T11:53:27.339Z,21.42
2023-11-30T11:56:21.781Z,18.83
2023-11-30T11:59:07.260Z,18.63
2023-11-30T12:01:54.030Z,18.10
2023-11-30T12:04:40.992Z,16.35
2023-11-30T12:07:26.840Z,16.20
2023-11-30T12:10:13.955Z,16.30
2023-11-30T12:13:04.442Z,14.98
2023-11-30T12:15:50.713Z,14.63
2023-11-30T12:18:35.962Z,16.65
2023-11-30T12:21:23.551Z,17.08
2023-11-30T12:24:09.482Z,18.38
2023-11-30T12:26:54.952Z,18.73
2023-11-30T12:29:40.953Z,17.60
2023-11-30T12:32:30.551Z,17.58
2023-11-30T12:35:17.761Z,16.30
2023-11-30T12:38:08.753Z,16.13
2023-11-30T12:40:54.560Z,15.55
2023-11-30T12:43:40.144Z,14.40
2023-11-30T12:46:28.134Z,14.48
2023-11-30T12:49:13.614Z,15.35
2023-11-30T12:52:02.136Z,14.13
2023-11-30T12:54:53.533Z,13.80
2023-11-30T12:57:40.835Z,13.88
2023-11-30T13:00:26.777Z,14.90
2023-11-30T13:03:12.248Z,15.27
2023-11-30T13:05:57.454Z,17.05
2023-11-30T13:08:49.338Z,15.75
2023-11-30T13:11:37.418Z,11.75
2023-11-30T13:14:24.954Z,13.13
2023-11-30T13:17:10.756Z,13.02
2023-11-30T13:19:56.069Z,11.73
2023-11-30T13:22:45.800Z,10.95
2023-11-30T13:25:31.554Z,11.00
2023-11-30T13:28:16.876Z,10.95
2023-11-30T13:31:02.670Z,8.70
2023-11-30T13:33:50.920Z,9.40
2023-11-30T13:36:39.484Z,10.13
2023-11-30T13:39:25.046Z,9.27
2023-11-30T13:42:11.095Z,9.27
2023-11-30T13:44:56.780Z,8.73
2023-11-30T13:47:48.468Z,7.47
2023-11-30T13:50:42.074Z,8.43
2023-11-30T13:53:36.369Z,7.90
2023-11-30T13:56:22.907Z,8.02
2023-11-30T13:59:10.219Z,8.52
2023-11-30T14:01:57.161Z,8.23
2023-11-30T14:04:42.676Z,8.13
2023-11-30T14:07:31.177Z,7.30
2023-11-30T14:10:17.940Z,7.20
2023-11-30T14:13:05.586Z,9.43
2023-11-30T14:15:53.862Z,9.90
2023-11-30T14:18:39.606Z,7.65
2023-11-30T14:21:27.866Z,7.07
2023-11-30T14:24:15.636Z,7.28
2023-11-30T14:27:04.489Z,7.40
2023-11-30T14:29:50.240Z,6.93
2023-11-30T14:32:37.216Z,6.88
2023-11-30T14:35:24.104Z,7.22
2023-11-30T14:38:09.872Z,8.18
2023-11-30T14:40:59.089Z,10.40
2023-11-30T14:43:49.707Z,10.63
2023-11-30T14:46:37.346Z,10.35
2023-11-30T14:49:23.093Z,10.90
2023-11-30T14:52:08.710Z,9.93
2023-11-30T14:54:55.961Z,10.43
2023-11-30T14:57:44.947Z,10.15
2023-11-30T15:00:39.312Z,11.45
2023-11-30T15:03:26.232Z,11.43
2023-11-30T15:06:11.532Z,9.38
2023-11-30T15:09:20.601Z,8.95
2023-11-30T15:12:07.493Z,9.27
2023-11-30T15:14:53.182Z,11.52
2023-11-30T15:17:39.183Z,10.43
2023-11-30T15:20:26.410Z,9.45
2023-11-30T15:23:11.915Z,10.05
2023-11-30T15:25:59.064Z,11.23
2023-11-30T15:28:44.934Z,9.95
2023-11-30T15:31:36.087Z,10.60
2023-11-30T15:34:23.312Z,9.05
2023-11-30T15:37:10.884Z,10.15
2023-11-30T15:39:56.889Z,9.88
2023-11-30T15:42:43.686Z,11.30
2023-11-30T15:45:31.317Z,13.60
2023-11-30T15:48:18.471Z,12.63
2023-11-30T15:51:04.793Z,12.32
2023-11-30T15:53:50.216Z,12.47
2023-11-30T15:56:35.952Z,12.57
2023-11-30T15:59:26.137Z,14.43
2023-11-30T16:02:11.919Z,14.13
2023-11-30T16:04:57.504Z,15.93
2023-11-30T16:07:44.493Z,16.25
2023-11-30T16:10:30.420Z,17.30
2023-11-30T16:13:17.566Z,17.90
2023-11-30T16:16:05.767Z,17.95
2023-11-30T16:18:54.223Z,18.40
2023-11-30T16:21:39.859Z,17.10
2023-11-30T16:24:25.419Z,16.30
2023-11-30T16:27:15.545Z,14.38
2023-11-30T16:30:04.075Z,14.68
2023-11-30T16:32:49.947Z,12.25
2023-11-30T16:35:35.855Z,13.73
2023-11-30T16:38:21.543Z,14.52
2023-11-30T16:41:07.773Z,14.05
2023-11-30T16:43:54.797Z,13.52
2023-11-30T16:46:43.572Z,13.32
2023-11-30T16:49:29.135Z,13.13
2023-11-30T16:52:14.446Z,15.35
2023-11-30T16:55:00.595Z,14.25
2023-11-30T16:57:47.797Z,15.30
2023-11-30T17:00:59.101Z,15.55
2023-11-30T17:03:45.586Z,15.45
2023-11-30T17:06:30.894Z,15.30
2023-11-30T17:09:19.169Z,14.57
2023-11-30T17:12:16.053Z,16.25
2023-11-30T17:15:05.196Z,14.75
2023-11-30T17:17:51.075Z,14.05
2023-11-30T17:20:36.811Z,12.65
2023-11-30T17:23:26.115Z,14.02
2023-11-30T17:26:21.252Z,15.57
2023-11-30T17:29:07.165Z,15.38
2023-11-30T17:31:52.364Z,14.60
2023-11-30T17:34:39.473Z,14.55
2023-11-30T17:37:24.843Z,15.27
2023-11-30T17:40:12.095Z,12.85
2023-11-30T17:42:58.422Z,12.75
2023-11-30T17:45:44.133Z,11.00
2023-11-30T17:48:30.581Z,10.95
2023-11-30T17:51:19.666Z,11.88
2023-11-30T17:54:05.505Z,11.18
2023-11-30T17:56:50.880Z,13.10
2023-11-30T17:59:36.574Z,13.50
2023-11-30T18:02:31.871Z,14.30
2023-11-30T18:05:20.421Z,13.63
2023-11-30T18:08:08.289Z,14.75
2023-11-30T18:10:54.519Z,14.00
2023-11-30T18:13:39.952Z,14.93
2023-11-30T18:16:25.382Z,13.18
2023-11-30T18:19:12.948Z,13.25
2023-11-30T18:21:58.869Z,14.98
2023-11-30T18:24:44.749Z,14.60
2023-11-30T18:27:33.256Z,14.93
2023-11-30T18:30:20.527Z,15.20
2023-11-30T18:33:14.755Z,14.98
2023-11-30T18:36:02.557Z,14.65
2023-11-30T18:38:51.192Z,14.18
2023-11-30T18:41:40.216Z,16.55
2023-11-30T18:44:28.162Z,16.75
2023-11-30T18:47:15.749Z,15.35
2023-11-30T18:50:01.746Z,14.73
2023-11-30T18:52:48.933Z,13.93
2023-11-30T18:55:37.570Z,12.88
2023-11-30T18:58:22.975Z,11.50
2023-11-30T19:01:08.651Z,12.98
2023-11-30T19:03:54.574Z,12.07
2023-11-30T19:06:40.242Z,13.02
2023-11-30T19:09:26.364Z,11.77
2023-11-30T19:12:12.578Z,10.18
2023-11-30T19:14:58.633Z,11.07
2023-11-30T19:17:47.948Z,9.88
2023-11-30T19:20:33.689Z,9.88
2023-11-30T19:23:19.019Z,10.95
2023-11-30T19:26:05.307Z,14.00
2023-11-30T19:28:52.020Z,17.05
2023-11-30T19:31:40.632Z,16.52
2023-11-30T19:34:27.830Z,18.88
2023-11-30T19:37:23.386Z,18.25
2023-11-30T19:40:09.469Z,16.45
2023-11-30T19:42:55.036Z,16.55
2023-11-30T19:45:40.744Z,16.25
2023-11-30T19:48:27.346Z,16.35
2023-11-30T19:51:19.585Z,14.88
2023-11-30T19:54:06.465Z,14.65
2023-11-30T19:56:53.192Z,13.32
2023-11-30T19:59:48.315Z,12.48
2023-11-30T20:02:33.673Z,12.13
2023-11-30T20:05:19.698Z,12.27
2023-11-30T20:08:08.033Z,13.80
2023-11-30T20:10:54.130Z,18.52
2023-11-30T20:13:41.588Z,16.60
2023-11-30T20:16:28.278Z,14.90
2023-11-30T20:19:14.551Z,13.48
2023-11-30T20:22:00.045Z,13.18
2023-11-30T20:24:46.826Z,12.10
2023-11-30T20:27:32.342Z,12.48
2023-11-30T20:30:18.175Z,11.10
2023-11-30T20:33:03.788Z,13.35
2023-11-30T20:35:49.504Z,13.07
2023-11-30T20:38:43.316Z,12.35
2023-11-30T20:41:28.658Z,11.25
2023-11-30T20:44:14.197Z,11.95
2023-11-30T20:47:01.275Z,11.45
2023-11-30T20:49:49.773Z,11.98
2023-11-30T20:52:36.797Z,12.40
2023-11-30T20:55:23.779Z,10.90
2023-11-30T20:58:10.020Z,11.07
2023-11-30T21:00:58.655Z,11.77
2023-11-30T21:03:46.986Z,13.52
2023-11-30T21:06:32.736Z,12.43
2023-11-30T21:09:18.165Z,11.57
2023-11-30T21:12:04.193Z,10.85
2023-11-30T21:14:49.572Z,10.27
2023-11-30T21:17:35.130Z,13.75
2023-11-30T21:20:20.826Z,14.93
2023-11-30T21:23:08.067Z,14.80
2023-11-30T21:25:56.130Z,13.52
2023-11-30T21:28:41.463Z,13.25
2023-11-30T21:31:27.122Z,15.88
2023-11-30T21:34:13.099Z,14.77
2023-11-30T21:36:59.004Z,15.30
2023-11-30T21:39:44.839Z,17.00
2023-11-30T21:42:30.655Z,21.38
2023-11-30T21:45:15.991Z,21.98
2023-11-30T21:48:01.958Z,19.90
2023-11-30T21:50:47.496Z,18.90
2023-11-30T21:53:35.926Z,20.08
2023-11-30T21:56:22.458Z,20.77
2023-11-30T21:59:11.056Z,21.63
2023-11-30T22:01:56.878Z,21.13
2023-11-30T22:04:42.406Z,21.15
2023-11-30T22:07:28.176Z,21.08
2023-11-30T22:10:14.111Z,21.58
2023-11-30T22:13:00.044Z,22.08
2023-11-30T22:15:45.824Z,22.00
2023-11-30T22:18:32.856Z,23.27
2023-11-30T22:21:22.653Z,21.67
2023-11-30T22:24:08.740Z,19.33
2023-11-30T22:26:57.431Z,20.08
2023-11-30T22:29:43.574Z,18.55
2023-11-30T22:32:29.053Z,15.98
2023-11-30T22:35:14.753Z,15.95
2023-11-30T22:38:00.904Z,16.65
2023-11-30T22:40:46.631Z,17.13
2023-11-30T22:43:32.413Z,18.27
2023-11-30T22:46:19.551Z,18.52
2023-11-30T22:49:05.630Z,18.90
2023-11-30T22:51:51.035Z,18.70
2023-11-30T22:54:36.922Z,19.75
2023-11-30T22:57:23.354Z,19.42
2023-11-30T23:00:17.168Z,17.85
2023-11-30T23:03:02.977Z,19.27
2023-11-30T23:05:48.888Z,17.60
2023-11-30T23:08:34.306Z,16.77
2023-11-30T23:11:21.070Z,15.40
2023-11-30T23:14:08.495Z,15.45
2023-11-30T23:16:53.891Z,14.82
2023-11-30T23:19:43.433Z,12.73
2023-11-30T23:22:29.170Z,12.98
2023-11-30T23:25:15.445Z,14.50
2023-11-30T23:28:00.929Z,11.90
2023-11-30T23:30:51.340Z,12.20
2023-11-30T23:33:36.892Z,13.32
2023-11-30T23:36:22.476Z,12.82
2023-11-30T23:39:08.006Z,13.15
2023-11-30T23:41:54.996Z,12.70
2023-11-30T23:44:40.447Z,13.40
2023-11-30T23:47:26.379Z,15.45
2023-11-30T23:50:13.839Z,15.68
2023-11-30T23:52:59.499Z,16.02
2023-11-30T23:55:46.484Z,14.93
2023-11-30T23:58:31.761Z,14.65
